Time;durP1;ratioP1;P1;durP2;ratioP2;P2;SDS_P1;SDS_P2;PMS_P1;PMS_P2;Temp;Humidity;BMP_temperature;BMP_pressure;BME280_temperature;BME280_humidity;BME280_pressure;Samples;Min_cycle;Max_cycle;Signal;HPM_P1;HPM_P2
2021/11/20 00:02:26;;;;;;;9.55;3.08;;;13.60;87.90;;;;;;5062076;28;20032;-73
2021/11/20 00:04:53;;;;;;;11.20;4.45;;;13.60;87.90;;;;;;5058617;28;20032;-73
2021/11/20 00:07:20;;;;;;;9.55;3.88;;;13.60;87.80;;;;;;5063283;28;20078;-70
2021/11/20 00:09:48;;;;;;;8.00;3.30;;;13.60;87.90;;;;;;5052878;28;20041;-72
2021/11/20 00:12:29;;;;;;;3.65;2.42;;;13.60;87.70;;;;;;5050048;28;20044;-71
2021/11/20 00:14:55;;;;;;;4.82;2.42;;;13.60;87.90;;;;;;5056638;28;20219;-78
2021/11/20 00:17:21;;;;;;;7.63;2.83;;;13.60;87.80;;;;;;5055373;28;20032;-78
2021/11/20 00:19:48;;;;;;;5.97;2.35;;;13.60;87.90;;;;;;5052522;28;20035;-78
2021/11/20 00:22:32;;;;;;;7.28;2.92;;;13.60;88.00;;;;;;5055534;28;20040;-72
2021/11/20 00:25:08;;;;;;;7.13;2.63;;;13.60;87.90;;;;;;5046484;28;20037;-73
2021/11/20 00:27:37;;;;;;;6.60;2.70;;;13.60;88.00;;;;;;5051647;28;20074;-74
2021/11/20 00:30:18;;;;;;;8.60;2.63;;;13.60;87.90;;;;;;5046616;28;20047;-78
2021/11/20 00:32:47;;;;;;;6.82;2.80;;;13.50;87.90;;;;;;5051908;28;20386;-77
2021/11/20 00:35:16;;;;;;;7.05;2.72;;;13.50;88.30;;;;;;5051968;28;20037;-76
2021/11/20 00:37:43;;;;;;;4.38;2.00;;;13.50;88.30;;;;;;5048097;28;20037;-77
2021/11/20 00:40:15;;;;;;;6.13;2.50;;;13.60;88.20;;;;;;5026864;28;20036;-78
2021/11/20 00:42:41;;;;;;;4.95;2.25;;;13.50;88.00;;;;;;5049308;28;20025;-74
2021/11/20 00:45:08;;;;;;;4.95;2.22;;;13.60;88.20;;;;;;5048716;28;20033;-79
2021/11/20 00:47:34;;;;;;;6.85;2.30;;;13.50;88.10;;;;;;5051441;28;20056;-80
2021/11/20 00:50:01;;;;;;;7.50;2.70;;;13.50;88.10;;;;;;5049876;28;20411;-81
2021/11/20 00:52:28;;;;;;;7.05;2.90;;;13.60;88.20;;;;;;5042268;28;20882;-73
2021/11/20 00:54:54;;;;;;;8.13;4.63;;;13.50;88.30;;;;;;5045327;28;20087;-72
2021/11/20 00:57:20;;;;;;;11.27;4.78;;;13.50;88.40;;;;;;5047419;28;20059;-73
2021/11/20 00:59:46;;;;;;;5.10;2.78;;;13.50;88.40;;;;;;5052010;28;20392;-73
2021/11/20 01:02:12;;;;;;;8.75;3.40;;;13.50;88.30;;;;;;5043244;28;20037;-73
2021/11/20 01:04:40;;;;;;;7.28;3.17;;;13.50;88.40;;;;;;5046165;28;20033;-73
2021/11/20 01:07:07;;;;;;;5.63;2.47;;;13.50;88.30;;;;;;5054014;28;20029;-72
2021/11/20 01:09:37;;;;;;;4.18;2.33;;;13.50;88.50;;;;;;5040413;28;20059;-71
2021/11/20 01:12:12;;;;;;;4.03;2.40;;;13.50;88.40;;;;;;5029462;28;20563;-71
2021/11/20 01:14:39;;;;;;;6.05;2.50;;;13.50;88.40;;;;;;5055538;28;20601;-71
2021/11/20 01:17:08;;;;;;;5.15;2.08;;;13.50;88.30;;;;;;5048196;28;20040;-72
2021/11/20 01:19:35;;;;;;;7.70;2.38;;;13.50;88.40;;;;;;5038003;28;20037;-71
2021/11/20 01:22:19;;;;;;;5.68;2.40;;;13.50;88.50;;;;;;5044277;28;20040;-69
2021/11/20 01:25:05;;;;;;;;;;;13.50;88.70;;;;;;5046153;28;20122;-69
2021/11/20 01:27:44;;;;;;;5.55;2.03;;;13.40;88.60;;;;;;5038255;28;19924;-70
2021/11/20 01:30:30;;;;;;;4.68;2.00;;;13.40;88.80;;;;;;5046283;28;20041;-72
2021/11/20 01:32:58;;;;;;;5.03;2.00;;;13.40;89.00;;;;;;5047875;28;20028;-69
2021/11/20 01:35:24;;;;;;;3.53;2.30;;;13.40;88.70;;;;;;5051696;28;20063;-69
2021/11/20 01:38:00;;;;;;;;;;;13.50;88.60;;;;;;5027527;28;20066;-73
2021/11/20 01:40:30;;;;;;;4.63;2.28;;;13.50;88.60;;;;;;5044363;28;19908;-71
2021/11/20 01:42:58;;;;;;;5.20;2.10;;;13.40;88.60;;;;;;5048741;28;20036;-69
2021/11/20 01:45:50;;;;;;;4.63;2.15;;;13.40;88.90;;;;;;5046878;28;20074;-69
2021/11/20 01:48:50;;;;;;;4.00;1.75;;;13.40;88.70;;;;;;5041177;28;20146;-66
2021/11/20 01:51:22;;;;;;;6.88;2.28;;;13.40;89.10;;;;;;5050222;28;20450;-69
2021/11/20 01:53:56;;;;;;;5.40;1.73;;;13.40;89.00;;;;;;5051151;28;20090;-68
2021/11/20 01:56:31;;;;;;;7.07;1.77;;;13.40;89.10;;;;;;5056338;28;20519;-71
2021/11/20 01:59:31;;;;;;;3.10;2.28;;;13.50;89.00;;;;;;5048561;28;20963;-69
2021/11/20 02:02:39;;;;;;;8.40;2.35;;;13.40;88.80;;;;;;5043656;28;20898;-69
2021/11/20 02:05:42;;;;;;;10.25;2.58;;;13.40;89.10;;;;;;5037121;28;20036;-69
2021/11/20 02:08:22;;;;;;;4.18;2.03;;;13.50;89.10;;;;;;5057010;28;20047;-69
2021/11/20 02:10:58;;;;;;;7.55;2.30;;;13.40;89.00;;;;;;5026180;28;20033;-68
2021/11/20 02:13:28;;;;;;;4.50;2.00;;;13.40;89.10;;;;;;5038371;28;20033;-69
2021/11/20 02:16:09;;;;;;;5.15;1.95;;;13.40;89.10;;;;;;5040946;28;20033;-69
2021/11/20 02:18:53;;;;;;;5.85;1.83;;;13.40;89.00;;;;;;5045896;28;20029;-68
2021/11/20 02:21:38;;;;;;;2.17;1.90;;;13.40;89.00;;;;;;5051780;28;20769;-69
2021/11/20 02:24:04;;;;;;;4.88;1.90;;;13.40;88.90;;;;;;5055079;28;20161;-69
2021/11/20 02:26:35;;;;;;;4.40;1.70;;;13.40;88.90;;;;;;5049681;28;20033;-67
2021/11/20 02:29:07;;;;;;;2.88;1.90;;;13.40;89.00;;;;;;5027853;28;20033;-67
2021/11/20 02:32:03;;;;;;;6.50;2.22;;;13.40;89.20;;;;;;5041771;28;20086;-67
2021/11/20 02:34:49;;;;;;;3.28;2.00;;;13.40;89.20;;;;;;5045523;28;20190;-68
2021/11/20 02:37:16;;;;;;;3.67;1.83;;;13.40;89.50;;;;;;5031548;28;20046;-70
2021/11/20 02:39:44;;;;;;;6.35;1.98;;;13.40;89.60;;;;;;5052883;28;20575;-70
2021/11/20 02:42:17;;;;;;;4.10;2.10;;;13.30;89.50;;;;;;5055847;28;20792;-67
2021/11/20 02:44:50;;;;;;;2.90;1.70;;;13.40;89.60;;;;;;5053496;28;20641;-69
2021/11/20 02:47:33;;;;;;;2.10;1.52;;;13.30;89.70;;;;;;5043758;28;20041;-70
2021/11/20 02:49:59;;;;;;;7.68;2.00;;;13.40;89.70;;;;;;5051047;28;20658;-68
2021/11/20 02:52:25;;;;;;;5.80;1.80;;;13.40;89.60;;;;;;5023494;28;20128;-69
2021/11/20 02:54:53;;;;;;;3.20;1.63;;;13.40;89.30;;;;;;5045706;28;20079;-68
2021/11/20 02:57:27;;;;;;;5.25;2.30;;;13.30;89.70;;;;;;5034995;28;20037;-70
2021/11/20 02:59:53;;;;;;;3.25;1.80;;;13.30;89.80;;;;;;5036822;28;20032;-69
2021/11/20 03:02:23;;;;;;;5.55;2.13;;;13.30;90.00;;;;;;5045083;28;20035;-69
2021/11/20 03:04:50;;;;;;;6.05;2.22;;;13.30;89.90;;;;;;5052879;28;20748;-69
2021/11/20 03:07:16;;;;;;;3.60;1.75;;;13.30;90.00;;;;;;5051760;28;20119;-68
2021/11/20 03:09:43;;;;;;;3.67;1.77;;;13.30;90.00;;;;;;5054894;28;20040;-69
2021/11/20 03:12:17;;;;;;;6.20;1.80;;;13.30;90.00;;;;;;5050170;28;20721;-69
2021/11/20 03:14:50;;;;;;;2.13;1.80;;;13.30;90.00;;;;;;5043100;28;20048;-70
2021/11/20 03:17:18;;;;;;;5.25;1.80;;;13.30;90.00;;;;;;5054684;28;20151;-69
2021/11/20 03:19:48;;;;;;;2.72;1.42;;;13.30;90.10;;;;;;5052628;28;20024;-69
2021/11/20 03:22:16;;;;;;;4.50;1.63;;;13.30;90.20;;;;;;5045806;28;20033;-68
2021/11/20 03:24:42;;;;;;;5.32;1.80;;;13.20;90.20;;;;;;5051358;28;20086;-67
2021/11/20 03:27:08;;;;;;;5.93;2.20;;;13.20;90.30;;;;;;5054644;28;20029;-68
2021/11/20 03:29:35;;;;;;;4.68;2.13;;;13.30;90.30;;;;;;5051463;28;20105;-68
2021/11/20 03:32:03;;;;;;;5.55;2.00;;;13.30;90.30;;;;;;5047273;28;20044;-68
2021/11/20 03:34:31;;;;;;;6.20;2.20;;;13.30;90.30;;;;;;5041555;28;20037;-68
2021/11/20 03:36:57;;;;;;;5.25;2.08;;;13.30;90.30;;;;;;5053991;28;20543;-68
2021/11/20 03:39:29;;;;;;;6.00;1.80;;;13.20;90.40;;;;;;5049586;28;20136;-67
2021/11/20 03:41:56;;;;;;;2.92;1.73;;;13.20;90.60;;;;;;5046145;28;20063;-68
2021/11/20 03:44:22;;;;;;;3.55;1.58;;;13.20;90.60;;;;;;5049807;28;20033;-68
2021/11/20 03:46:51;;;;;;;3.33;1.70;;;13.20;90.70;;;;;;5047179;28;20565;-68
2021/11/20 03:49:17;;;;;;;5.20;1.70;;;13.20;90.70;;;;;;5050316;28;20064;-68
2021/11/20 03:51:43;;;;;;;3.42;1.67;;;13.20;90.70;;;;;;5055231;28;20735;-68
2021/11/20 03:54:10;;;;;;;5.22;2.05;;;13.20;90.70;;;;;;5057936;28;20056;-68
2021/11/20 03:56:37;;;;;;;5.03;1.95;;;13.20;90.80;;;;;;5035399;28;20061;-68
2021/11/20 03:59:04;;;;;;;3.30;1.63;;;13.20;90.90;;;;;;5030862;28;20043;-68
2021/11/20 04:01:31;;;;;;;6.38;2.03;;;13.10;91.10;;;;;;5047550;28;20033;-68
2021/11/20 04:04:00;;;;;;;3.10;1.70;;;13.10;91.10;;;;;;5057220;28;20028;-68
2021/11/20 04:06:26;;;;;;;1.92;1.63;;;13.10;91.20;;;;;;5053591;28;20123;-68
2021/11/20 04:09:00;;;;;;;2.45;1.85;;;13.10;91.30;;;;;;5047250;28;20037;-68
2021/11/20 04:11:31;;;;;;;3.28;2.10;;;13.10;91.30;;;;;;5042916;28;20029;-68
2021/11/20 04:13:59;;;;;;;4.15;2.00;;;13.10;91.30;;;;;;5041640;28;20033;-67
2021/11/20 04:16:29;;;;;;;4.47;2.15;;;13.10;91.40;;;;;;5046584;28;20144;-68
2021/11/20 04:18:58;;;;;;;3.03;2.03;;;13.00;91.30;;;;;;5046069;28;20029;-68
2021/11/20 04:21:25;;;;;;;2.70;1.90;;;13.00;91.40;;;;;;5040981;28;20028;-68
2021/11/20 04:23:53;;;;;;;4.25;2.45;;;13.00;91.50;;;;;;5055043;28;20028;-68
2021/11/20 04:26:34;;;;;;;3.30;1.85;;;12.90;91.50;;;;;;5048784;28;20063;-68
2021/11/20 04:29:00;;;;;;;3.67;1.77;;;12.90;91.70;;;;;;5043326;28;20483;-68
2021/11/20 04:31:30;;;;;;;3.08;1.98;;;12.90;91.70;;;;;;5040238;28;20096;-68
2021/11/20 04:33:57;;;;;;;4.70;1.88;;;12.90;91.70;;;;;;5044602;28;20552;-67
2021/11/20 04:36:25;;;;;;;3.35;2.00;;;12.90;91.80;;;;;;5049213;28;20043;-68
2021/11/20 04:38:51;;;;;;;3.75;2.60;;;12.90;91.70;;;;;;5050868;28;20524;-68
2021/11/20 04:41:18;;;;;;;4.50;2.05;;;13.00;91.70;;;;;;5039828;28;20032;-68
2021/11/20 04:43:47;;;;;;;4.90;2.30;;;12.90;92.00;;;;;;5050534;28;20032;-68
2021/11/20 04:46:15;;;;;;;2.58;1.85;;;12.90;91.80;;;;;;5045434;28;20037;-68
2021/11/20 04:48:42;;;;;;;3.33;1.90;;;12.90;91.90;;;;;;5039633;28;20062;-68
2021/11/20 04:51:09;;;;;;;3.83;1.95;;;12.90;91.90;;;;;;5041860;28;20033;-68
2021/11/20 04:53:37;;;;;;;2.55;2.15;;;12.90;92.00;;;;;;5047954;28;20025;-68
2021/11/20 04:56:07;;;;;;;5.35;2.40;;;12.90;92.00;;;;;;5050842;28;20123;-68
2021/11/20 04:58:33;;;;;;;4.05;2.40;;;12.80;92.00;;;;;;5042540;28;20033;-68
2021/11/20 05:01:00;;;;;;;4.85;2.53;;;12.80;92.00;;;;;;5026620;28;20104;-68
2021/11/20 05:03:33;;;;;;;6.63;2.05;;;12.80;92.10;;;;;;5048500;28;20780;-68
2021/11/20 05:06:01;;;;;;;5.63;2.33;;;12.80;92.30;;;;;;5049173;28;20849;-68
2021/11/20 05:08:28;;;;;;;4.68;2.42;;;12.60;92.60;;;;;;5056385;28;20032;-68
2021/11/20 05:11:01;;;;;;;4.07;2.20;;;12.60;92.80;;;;;;5052484;28;20692;-68
2021/11/20 05:13:35;;;;;;;4.00;1.95;;;12.60;93.00;;;;;;5045594;28;20155;-68
2021/11/20 05:16:03;;;;;;;3.97;2.30;;;12.60;93.10;;;;;;5041148;28;20044;-68
2021/11/20 05:18:30;;;;;;;3.67;2.08;;;12.60;93.20;;;;;;5041670;28;20064;-68
2021/11/20 05:21:06;;;;;;;3.83;2.00;;;12.60;93.30;;;;;;5044749;28;20028;-67
2021/11/20 05:23:36;;;;;;;4.93;2.22;;;12.50;93.40;;;;;;5053073;28;20852;-68
2021/11/20 05:26:05;;;;;;;5.75;2.65;;;12.50;93.40;;;;;;5056715;28;20041;-66
2021/11/20 05:28:32;;;;;;;6.43;2.25;;;12.50;93.50;;;;;;5052095;28;20049;-68
2021/11/20 05:31:00;;;;;;;4.47;2.55;;;12.50;93.60;;;;;;5048628;28;20113;-68
2021/11/20 05:33:41;;;;;;;3.60;2.47;;;12.50;93.60;;;;;;5036864;28;20110;-68
2021/11/20 05:36:10;;;;;;;6.03;2.35;;;12.40;93.90;;;;;;5044489;28;20043;-68
2021/11/20 05:38:37;;;;;;;6.93;2.78;;;12.30;94.10;;;;;;5049410;28;20043;-68
2021/11/20 05:41:04;;;;;;;3.22;2.20;;;12.30;94.20;;;;;;5042768;28;20029;-68
2021/11/20 05:43:42;;;;;;;5.88;2.15;;;12.30;94.20;;;;;;5049463;28;20033;-68
2021/11/20 05:46:17;;;;;;;4.00;2.80;;;12.30;94.20;;;;;;5048325;28;20036;-68
2021/11/20 05:48:43;;;;;;;3.00;2.20;;;12.30;94.20;;;;;;5047273;28;20040;-68
2021/11/20 05:51:10;;;;;;;5.43;2.28;;;12.40;94.30;;;;;;5052258;28;20035;-68
2021/11/20 05:53:36;;;;;;;6.20;2.63;;;12.30;94.30;;;;;;5054457;28;20085;-68
2021/11/20 05:56:02;;;;;;;4.03;2.80;;;12.30;94.30;;;;;;5052724;28;20047;-67
2021/11/20 05:58:38;;;;;;;7.15;2.63;;;12.40;94.30;;;;;;5031337;28;20071;-67
2021/11/20 06:01:10;;;;;;;6.65;3.30;;;12.40;94.30;;;;;;5053512;28;20036;-68
2021/11/20 06:03:36;;;;;;;7.05;3.10;;;12.40;94.40;;;;;;5049339;28;20040;-68
2021/11/20 06:06:04;;;;;;;8.95;2.90;;;12.30;94.30;;;;;;5045835;28;20139;-68
2021/11/20 06:08:30;;;;;;;3.45;2.53;;;12.30;94.50;;;;;;5048283;28;20142;-68
2021/11/20 06:10:58;;;;;;;6.40;3.50;;;12.30;94.50;;;;;;5028055;28;20580;-68
2021/11/20 06:13:26;;;;;;;6.35;2.95;;;12.30;94.50;;;;;;5044110;28;20678;-67
2021/11/20 06:15:59;;;;;;;6.75;3.15;;;12.30;94.60;;;;;;5046378;28;20087;-67
2021/11/20 06:18:28;;;;;;;9.32;3.00;;;12.30;94.60;;;;;;5048456;28;20078;-68
2021/11/20 06:20:55;;;;;;;6.30;3.03;;;12.30;94.60;;;;;;5048612;28;20041;-68
2021/11/20 06:23:23;;;;;;;5.97;3.67;;;12.30;94.60;;;;;;5044539;28;20029;-68
2021/11/20 06:25:53;;;;;;;7.13;3.65;;;12.40;94.60;;;;;;5026759;28;20037;-69
2021/11/20 06:28:20;;;;;;;9.80;3.60;;;12.30;94.60;;;;;;5047078;28;20124;-68
2021/11/20 06:30:46;;;;;;;8.70;4.15;;;12.30;94.40;;;;;;5043769;28;20107;-68
2021/11/20 06:33:12;;;;;;;5.80;3.30;;;12.40;94.50;;;;;;5045118;28;20040;-68
2021/11/20 06:35:47;;;;;;;8.63;3.30;;;12.40;94.50;;;;;;5046589;28;20025;-67
2021/11/20 06:38:20;;;;;;;6.15;3.50;;;12.40;94.60;;;;;;5062679;28;20063;-68
2021/11/20 06:40:51;;;;;;;9.43;3.90;;;12.30;94.60;;;;;;5039131;28;20032;-68
2021/11/20 06:43:22;;;;;;;4.47;3.03;;;12.30;94.60;;;;;;5048912;28;20062;-67
2021/11/20 06:45:50;;;;;;;4.68;3.03;;;12.30;94.70;;;;;;5049903;28;20064;-68
2021/11/20 06:48:17;;;;;;;5.85;2.92;;;12.30;94.80;;;;;;5049886;28;20064;-68
2021/11/20 06:50:52;;;;;;;9.32;3.65;;;12.30;94.80;;;;;;5045486;28;20060;-67
2021/11/20 06:53:38;;;;;;;5.40;3.05;;;12.30;94.70;;;;;;5047828;28;20078;-68
2021/11/20 06:56:27;;;;;;;7.70;3.85;;;12.40;94.60;;;;;;5040545;28;20083;-68
2021/11/20 06:59:16;;;;;;;6.63;3.90;;;12.30;94.60;;;;;;5047267;28;20028;-68
2021/11/20 07:01:44;;;;;;;6.55;3.60;;;12.40;94.60;;;;;;5034859;28;20794;-68
2021/11/20 07:04:14;;;;;;;7.50;3.90;;;12.40;94.50;;;;;;5046691;28;20042;-68
2021/11/20 07:06:48;;;;;;;6.97;4.18;;;12.40;94.40;;;;;;5051676;28;20025;-68
2021/11/20 07:09:14;;;;;;;6.75;3.50;;;12.50;94.40;;;;;;5047034;28;20044;-68
2021/11/20 07:11:40;;;;;;;6.35;4.50;;;12.40;94.30;;;;;;5048708;28;20101;-67
2021/11/20 07:14:07;;;;;;;7.10;3.97;;;12.40;94.30;;;;;;5038891;28;20044;-66
2021/11/20 07:16:33;;;;;;;10.63;4.65;;;12.40;94.30;;;;;;5041315;28;20036;-68
2021/11/20 07:19:00;;;;;;;10.65;4.65;;;12.50;94.30;;;;;;5044837;28;20067;-68
2021/11/20 07:22:02;;;;;;;7.30;4.70;;;12.50;94.20;;;;;;5071999;28;20063;-68
2021/11/20 07:24:45;;;;;;;7.50;4.70;;;12.60;94.10;;;;;;5049231;28;20040;-68
2021/11/20 07:27:11;;;;;;;10.00;4.47;;;12.50;94.10;;;;;;5048583;28;20037;-68
2021/11/20 07:29:38;;;;;;;9.00;5.00;;;12.50;94.10;;;;;;5049893;28;20021;-68
2021/11/20 07:32:07;;;;;;;8.15;5.45;;;12.50;94.10;;;;;;5053081;28;20064;-68
2021/11/20 07:34:34;;;;;;;9.57;4.50;;;12.50;94.00;;;;;;5050196;28;20140;-68
2021/11/20 07:37:00;;;;;;;11.05;6.35;;;12.60;93.90;;;;;;5053272;28;20103;-68
2021/11/20 07:39:27;;;;;;;12.40;5.07;;;12.60;93.90;;;;;;5054484;28;20043;-68
2021/11/20 07:41:54;;;;;;;8.52;5.15;;;12.70;93.70;;;;;;5051501;28;20681;-68
2021/11/20 07:44:22;;;;;;;8.43;6.00;;;12.70;93.60;;;;;;5050453;28;20127;-68
2021/11/20 07:46:48;;;;;;;8.63;6.30;;;12.70;93.50;;;;;;5055731;28;20043;-68
2021/11/20 07:49:16;;;;;;;10.13;5.70;;;12.70;93.40;;;;;;5037366;28;20444;-68
2021/11/20 07:51:43;;;;;;;9.57;6.13;;;12.80;93.20;;;;;;5049534;28;20047;-67
2021/11/20 07:54:11;;;;;;;12.60;5.07;;;12.90;93.20;;;;;;5045085;28;20037;-67
2021/11/20 07:56:56;;;;;;;12.13;6.30;;;12.90;93.00;;;;;;5053684;28;20126;-68
2021/11/20 07:59:24;;;;;;;10.55;5.88;;;12.90;92.70;;;;;;5051778;28;20025;-67
2021/11/20 08:01:53;;;;;;;9.02;5.55;;;12.90;92.80;;;;;;5041831;28;20033;-68
2021/11/20 08:04:36;;;;;;;8.23;5.20;;;12.90;92.60;;;;;;5057145;28;20082;-67
2021/11/20 08:07:26;;;;;;;9.55;5.05;;;12.90;92.80;;;;;;5051902;28;20033;-68
2021/11/20 08:10:11;;;;;;;11.32;4.93;;;12.90;92.70;;;;;;5046277;28;20451;-68
2021/11/20 08:12:43;;;;;;;12.10;5.60;;;12.90;92.70;;;;;;5047700;28;20036;-68
2021/11/20 08:15:31;;;;;;;7.25;4.88;;;13.00;92.60;;;;;;5047122;28;20956;-67
2021/11/20 08:18:17;;;;;;;7.25;4.75;;;13.10;92.30;;;;;;5046778;28;20033;-68
2021/11/20 08:21:03;;;;;;;8.75;4.78;;;13.10;92.20;;;;;;5048148;28;20122;-68
2021/11/20 08:23:38;;;;;;;9.55;4.63;;;13.10;92.00;;;;;;5049298;28;20135;-68
2021/11/20 08:26:06;;;;;;;6.53;5.22;;;13.10;92.00;;;;;;5051840;28;20032;-68
2021/11/20 08:28:32;;;;;;;8.38;5.05;;;13.10;91.90;;;;;;5039424;28;20035;-68
2021/11/20 08:30:58;;;;;;;9.95;5.25;;;13.10;92.10;;;;;;5046583;28;20064;-68
2021/11/20 08:33:26;;;;;;;12.57;5.32;;;13.10;92.00;;;;;;5032301;28;20167;-67
2021/11/20 08:36:15;;;;;;;9.35;5.30;;;13.10;92.00;;;;;;5049087;28;21018;-68
2021/11/20 08:39:14;;;;;;;8.18;4.75;;;13.00;92.10;;;;;;5043891;28;20067;-68
2021/11/20 08:41:45;;;;;;;12.70;5.68;;;13.10;92.10;;;;;;5038941;28;20516;-68
2021/11/20 08:44:11;;;;;;;12.02;5.20;;;13.10;91.90;;;;;;5047143;28;20033;-68
2021/11/20 08:46:59;;;;;;;12.75;5.85;;;13.10;91.80;;;;;;5035320;28;20028;-68
2021/11/20 08:49:27;;;;;;;11.98;6.53;;;13.10;91.90;;;;;;5042335;28;20772;-68
2021/11/20 08:51:53;;;;;;;8.35;4.90;;;13.10;91.70;;;;;;5044713;28;20036;-68
2021/11/20 08:54:21;;;;;;;7.68;5.53;;;13.30;91.60;;;;;;5043384;28;20803;-68
2021/11/20 08:56:52;;;;;;;8.45;6.07;;;13.50;91.10;;;;;;5049918;28;20216;-68
2021/11/20 08:59:24;;;;;;;12.55;5.78;;;13.90;90.40;;;;;;5049791;28;20029;-68
2021/11/20 09:02:17;;;;;;;8.10;5.72;;;14.60;87.00;;;;;;5050408;28;20405;-68
2021/11/20 09:05:12;;;;;;;11.48;6.82;;;15.30;83.80;;;;;;5031884;28;20039;-67
2021/11/20 09:07:52;;;;;;;10.88;5.40;;;15.40;82.30;;;;;;5054532;28;20131;-67
2021/11/20 09:10:30;;;;;;;9.10;4.72;;;15.40;81.60;;;;;;5046026;28;20496;-67
2021/11/20 09:13:19;;;;;;;7.45;3.85;;;15.40;81.70;;;;;;5040476;28;20632;-68
2021/11/20 09:15:51;;;;;;;10.68;4.72;;;15.20;81.30;;;;;;5055255;28;20040;-68
2021/11/20 09:18:24;;;;;;;9.73;5.03;;;15.00;82.90;;;;;;5045919;28;20037;-68
2021/11/20 09:20:52;;;;;;;8.98;4.32;;;14.90;83.90;;;;;;5051191;28;20554;-68
2021/11/20 09:23:46;;;;;;;12.50;4.05;;;14.80;84.30;;;;;;5047688;28;20048;-69
2021/11/20 09:26:33;;;;;;;14.57;4.90;;;14.60;84.60;;;;;;5053861;28;20118;-66
2021/11/20 09:29:01;;;;;;;7.85;4.15;;;14.50;85.00;;;;;;5029776;28;20037;-68
2021/11/20 09:31:30;;;;;;;8.43;3.90;;;14.60;85.20;;;;;;5054782;28;20383;-67
2021/11/20 09:33:57;;;;;;;6.05;4.25;;;14.60;84.60;;;;;;5043449;28;20129;-68
2021/11/20 09:36:26;;;;;;;10.15;4.93;;;14.70;84.10;;;;;;5047692;28;20123;-68
2021/11/20 09:39:13;;;;;;;5.57;4.47;;;14.60;83.80;;;;;;5050990;28;20091;-69
2021/11/20 09:42:09;;;;;;;8.38;4.50;;;14.30;84.90;;;;;;5051388;28;20032;-68
2021/11/20 09:44:46;;;;;;;12.95;5.50;;;14.30;85.80;;;;;;5051294;28;20024;-68
2021/11/20 09:47:23;;;;;;;13.40;5.20;;;14.40;85.70;;;;;;5046708;28;20033;-69
2021/11/20 09:49:52;;;;;;;7.45;4.22;;;14.50;85.20;;;;;;5041186;28;20787;-68
2021/11/20 09:52:20;;;;;;;8.77;4.30;;;14.40;85.10;;;;;;5049930;28;20024;-66
2021/11/20 09:54:48;;;;;;;9.90;4.78;;;14.30;84.90;;;;;;5049427;28;20780;-67
2021/11/20 09:57:14;;;;;;;8.05;4.90;;;14.20;85.60;;;;;;5048154;28;20028;-67
2021/11/20 10:00:20;;;;;;;8.77;4.65;;;14.10;85.60;;;;;;5049139;28;20848;-67
2021/11/20 10:03:24;;;;;;;9.65;5.70;;;14.10;86.60;;;;;;5045133;28;20043;-67
2021/11/20 10:06:04;;;;;;;11.20;5.18;;;14.00;86.70;;;;;;5055218;28;20040;-67
2021/11/20 10:08:33;;;;;;;11.52;5.78;;;13.80;86.80;;;;;;5043408;28;20824;-66
2021/11/20 10:11:23;;;;;;;11.10;4.88;;;13.80;87.10;;;;;;5052599;28;20024;-66
2021/11/20 10:14:14;;;;;;;10.15;4.22;;;13.90;87.20;;;;;;5046953;28;20139;-67
2021/11/20 10:16:48;;;;;;;7.43;5.45;;;13.90;87.30;;;;;;5040933;28;20044;-66
2021/11/20 10:19:19;;;;;;;11.43;5.18;;;13.90;87.70;;;;;;5042114;28;20038;-67
2021/11/20 10:22:07;;;;;;;8.63;4.97;;;13.90;87.60;;;;;;5050391;28;20035;-67
2021/11/20 10:24:46;;;;;;;9.52;4.88;;;13.70;87.60;;;;;;5046590;28;20045;-67
2021/11/20 10:27:24;;;;;;;10.15;5.63;;;13.70;88.30;;;;;;5048161;28;20039;-67
2021/11/20 10:30:11;;;;;;;9.93;4.88;;;13.70;88.40;;;;;;5041517;28;20037;-67
2021/11/20 10:32:42;;;;;;;9.75;5.68;;;13.70;88.40;;;;;;5052816;28;20140;-67
2021/11/20 10:35:30;;;;;;;7.13;5.07;;;13.70;88.40;;;;;;5046125;28;20033;-67
2021/11/20 10:38:13;;;;;;;10.98;5.10;;;13.80;88.70;;;;;;5041141;28;20025;-67
2021/11/20 10:40:54;;;;;;;10.63;4.85;;;13.80;88.50;;;;;;5046522;28;20749;-68
2021/11/20 10:43:26;;;;;;;6.53;5.25;;;13.80;88.60;;;;;;5043728;28;20170;-64
2021/11/20 10:46:26;;;;;;;11.60;5.72;;;13.80;88.50;;;;;;5053454;28;20124;-68
2021/11/20 10:49:19;;;;;;;10.90;5.57;;;13.80;88.40;;;;;;5044079;28;20040;-66
2021/11/20 10:51:54;;;;;;;11.00;6.25;;;13.90;88.20;;;;;;5045569;28;20144;-67
2021/11/20 10:54:50;;;;;;;10.10;5.97;;;13.90;87.30;;;;;;5046730;28;20555;-72
2021/11/20 10:57:31;;;;;;;8.77;5.78;;;14.10;87.40;;;;;;5048736;28;20119;-68
2021/11/20 11:00:27;;;;;;;11.40;6.88;;;14.10;87.20;;;;;;5044053;28;20028;-67
2021/11/20 11:02:59;;;;;;;12.35;6.07;;;14.20;86.30;;;;;;5052005;28;20040;-64
2021/11/20 11:05:37;;;;;;;7.60;6.07;;;14.20;85.60;;;;;;5052142;28;20028;-65
2021/11/20 11:08:33;;;;;;;11.68;6.53;;;14.30;85.90;;;;;;5045945;28;20037;-65
2021/11/20 11:11:15;;;;;;;9.98;6.63;;;14.40;84.90;;;;;;5044471;28;20086;-65
2021/11/20 11:14:03;;;;;;;10.52;6.28;;;14.20;85.10;;;;;;5044367;28;20029;-67
2021/11/20 11:16:46;;;;;;;8.48;6.60;;;14.10;85.30;;;;;;5045882;28;20043;-66
2021/11/20 11:19:49;;;;;;;12.10;6.50;;;14.10;85.60;;;;;;5044919;28;20100;-67
2021/11/20 11:22:24;;;;;;;12.38;6.80;;;14.00;86.20;;;;;;5044153;28;20033;-67
2021/11/20 11:25:08;;;;;;;12.60;6.90;;;14.10;85.80;;;;;;5040802;28;20032;-67
2021/11/20 11:27:53;;;;;;;13.13;5.90;;;14.00;85.30;;;;;;5045469;28;20025;-67
2021/11/20 11:30:30;;;;;;;10.23;7.00;;;14.00;85.40;;;;;;5045283;28;20044;-67
2021/11/20 11:32:57;;;;;;;10.95;6.93;;;13.90;85.80;;;;;;5044719;28;20116;-67
2021/11/20 11:35:34;;;;;;;8.98;6.07;;;14.10;85.80;;;;;;5043446;28;20037;-67
2021/11/20 11:38:18;;;;;;;15.40;7.10;;;14.20;84.90;;;;;;5047340;28;20112;-67
2021/11/20 11:40:53;;;;;;;9.82;5.65;;;14.30;83.90;;;;;;5055563;28;20044;-68
2021/11/20 11:43:40;;;;;;;10.77;6.30;;;14.40;84.30;;;;;;5048879;28;20335;-67
2021/11/20 11:46:06;;;;;;;15.00;7.03;;;14.50;83.70;;;;;;5045597;28;20275;-67
2021/11/20 11:49:04;;;;;;;9.95;6.55;;;14.50;82.40;;;;;;5044470;28;20554;-67
2021/11/20 11:51:36;;;;;;;8.55;6.53;;;14.60;83.20;;;;;;5043721;28;20090;-67
2021/11/20 11:54:31;;;;;;;11.68;6.03;;;14.60;82.40;;;;;;5043178;28;20079;-67
2021/11/20 11:56:57;;;;;;;13.05;6.65;;;14.50;82.60;;;;;;5052889;28;20033;-67
2021/11/20 11:59:39;;;;;;;9.55;6.50;;;14.60;82.60;;;;;;5049220;28;20041;-67
2021/11/20 12:02:23;;;;;;;12.65;6.45;;;14.70;82.10;;;;;;5048214;28;20032;-67
2021/11/20 12:04:51;;;;;;;12.30;6.78;;;14.70;81.90;;;;;;5054402;28;20036;-67
2021/11/20 12:07:30;;;;;;;14.98;6.68;;;14.80;82.00;;;;;;5048005;28;20070;-67
2021/11/20 12:10:30;;;;;;;11.88;7.32;;;14.70;81.40;;;;;;5050717;28;20037;-65
2021/11/20 12:13:07;;;;;;;9.05;6.93;;;14.70;81.60;;;;;;5048764;28;20116;-77
2021/11/20 12:15:48;;;;;;;12.93;6.60;;;14.60;82.10;;;;;;5049787;28;20033;-76
2021/11/20 12:18:19;;;;;;;13.60;7.68;;;14.60;82.10;;;;;;5038391;28;20123;-77
2021/11/20 12:20:56;;;;;;;10.45;7.00;;;14.60;82.00;;;;;;5048359;28;20620;-74
2021/11/20 12:23:47;;;;;;;11.70;7.07;;;14.60;82.10;;;;;;5049380;28;20052;-78
2021/11/20 12:26:22;;;;;;;14.10;7.50;;;14.50;82.70;;;;;;5047945;28;20028;-75
2021/11/20 12:28:51;;;;;;;16.00;9.43;;;14.50;82.40;;;;;;5049003;28;20036;-74
2021/11/20 12:31:31;;;;;;;14.50;8.43;;;14.50;82.50;;;;;;5050708;28;20634;-74
2021/11/20 12:34:16;;;;;;;16.15;8.25;;;14.40;82.40;;;;;;5052054;28;20036;-74
2021/11/20 12:36:49;;;;;;;13.30;8.20;;;14.40;82.10;;;;;;5056637;28;20112;-74
2021/11/20 12:39:34;;;;;;;10.10;7.10;;;14.30;82.50;;;;;;5044115;28;20033;-74
2021/11/20 12:42:33;;;;;;;13.23;6.72;;;14.30;82.80;;;;;;5064240;28;20706;-74
2021/11/20 12:45:30;;;;;;;7.63;6.57;;;14.30;83.00;;;;;;5051205;28;20048;-74
2021/11/20 12:48:11;;;;;;;8.77;6.57;;;14.30;83.00;;;;;;5052147;28;20025;-74
2021/11/20 12:50:51;;;;;;;12.20;6.13;;;14.20;83.10;;;;;;5048676;28;20108;-74
2021/11/20 12:53:31;;;;;;;10.40;6.60;;;14.20;83.20;;;;;;5048806;28;20378;-74
2021/11/20 12:56:28;;;;;;;10.50;6.78;;;14.20;82.20;;;;;;5046726;28;20040;-74
2021/11/20 12:59:19;;;;;;;12.57;6.40;;;14.20;83.20;;;;;;5048759;28;20037;-74
2021/11/20 13:01:58;;;;;;;10.95;6.57;;;14.20;82.80;;;;;;5033910;28;20029;-74
2021/11/20 13:04:44;;;;;;;11.88;7.72;;;14.20;82.60;;;;;;5045371;28;20202;-71
2021/11/20 13:07:21;;;;;;;8.07;6.30;;;14.20;82.20;;;;;;5051105;28;20488;-66
2021/11/20 13:09:56;;;;;;;12.40;7.35;;;14.20;82.90;;;;;;5046796;28;20306;-66
2021/11/20 13:12:27;;;;;;;10.82;6.53;;;14.20;82.70;;;;;;5050154;28;20565;-66
2021/11/20 13:15:26;;;;;;;8.15;6.25;;;14.20;82.40;;;;;;5053547;28;20036;-66
2021/11/20 13:18:07;;;;;;;8.57;5.93;;;14.20;82.10;;;;;;5046329;28;20115;-67
2021/11/20 13:20:41;;;;;;;8.77;6.32;;;14.20;82.20;;;;;;5043912;28;20132;-65
2021/11/20 13:23:09;;;;;;;10.60;6.32;;;14.10;82.40;;;;;;5050146;28;20781;-65
2021/11/20 13:26:00;;;;;;;8.80;6.47;;;14.10;82.50;;;;;;5046279;28;20479;-62